Time;durP1;ratioP1;P1;durP2;ratioP2;P2;SDS_P1;SDS_P2;PMS_P1;PMS_P2;Temp;Humidity;BMP_temperature;BMP_pressure;BME280_temperature;BME280_humidity;BME280_pressure;Samples;Min_cycle;Max_cycle;Signal;HPM_P1;HPM_P2
2024/01/14 06:00:22;;;;;;;48.38;21.02;;;-2.00;80.40;;;;;;4860342;23;1156400;-77
2024/01/14 06:02:23;;;;;;;49.88;21.13;;;-2.00;80.20;;;;;;4073956;29;20056;-75
2024/01/14 06:04:25;;;;;;;49.83;21.27;;;-2.00;80.20;;;;;;4074696;29;20040;-76
2024/01/14 06:06:27;;;;;;;52.28;21.67;;;-2.00;79.90;;;;;;4084837;29;20052;-76
2024/01/14 06:08:29;;;;;;;52.45;22.30;;;-2.00;80.10;;;;;;4084656;29;20047;-77
2024/01/14 06:10:31;;;;;;;54.47;23.42;;;-2.00;80.10;;;;;;4084632;29;20059;-75
2024/01/14 06:12:33;;;;;;;52.03;22.02;;;-2.10;80.50;;;;;;4084698;29;20139;-75
2024/01/14 06:14:36;;;;;;;52.13;21.77;;;-2.10;80.60;;;;;;4084657;29;20473;-77
2024/01/14 06:16:39;;;;;;;54.45;22.42;;;-2.10;81.00;;;;;;4084667;29;20485;-77
2024/01/14 06:18:41;;;;;;;51.55;21.77;;;-2.10;81.50;;;;;;4084736;29;20052;-75
2024/01/14 06:20:43;;;;;;;54.35;23.38;;;-2.00;81.50;;;;;;4084634;29;20107;-74
2024/01/14 06:22:45;;;;;;;49.83;22.23;;;-2.00;81.10;;;;;;4077532;29;20047;-75
2024/01/14 06:24:47;;;;;;;49.63;22.25;;;-1.90;80.50;;;;;;4066166;29;20047;-74
2024/01/14 06:26:52;;;;;;;48.35;21.25;;;-1.90;80.30;;;;;;4068659;29;20048;-74
2024/01/14 06:28:54;;;;;;;52.35;21.80;;;-1.90;79.90;;;;;;4067867;29;20478;-75
2024/01/14 06:30:56;;;;;;;52.63;22.52;;;-2.10;80.20;;;;;;4068669;29;20052;-75
2024/01/14 06:32:59;;;;;;;52.13;22.25;;;-2.30;81.00;;;;;;4068759;29;20071;-76
2024/01/14 06:35:01;;;;;;;52.80;22.55;;;-2.40;81.50;;;;;;4068601;29;20078;-75
2024/01/14 06:37:03;;;;;;;55.25;23.15;;;-2.50;82.70;;;;;;4068465;29;20084;-74
2024/01/14 06:39:05;;;;;;;54.80;22.67;;;-2.50;82.40;;;;;;4068262;29;20044;-75
2024/01/14 06:41:07;;;;;;;52.78;23.23;;;-2.50;83.00;;;;;;4062481;29;20045;-74
2024/01/14 06:43:09;;;;;;;48.88;21.55;;;-2.50;82.70;;;;;;4068678;29;20044;-76
2024/01/14 06:45:13;;;;;;;50.60;21.70;;;-2.40;82.50;;;;;;4068523;29;20048;-76
2024/01/14 06:47:14;;;;;;;52.05;22.20;;;-2.40;82.40;;;;;;4068570;29;20088;-75
2024/01/14 06:49:17;;;;;;;50.08;22.27;;;-2.40;82.50;;;;;;4067366;29;20450;-75
2024/01/14 06:51:19;;;;;;;53.97;23.35;;;-2.40;82.60;;;;;;4057220;29;20064;-76
2024/01/14 06:53:21;;;;;;;51.38;22.75;;;-2.30;82.10;;;;;;4055758;29;20044;-74
2024/01/14 06:55:23;;;;;;;52.53;22.70;;;-2.30;81.90;;;;;;4067019;29;20454;-76
2024/01/14 06:57:25;;;;;;;54.70;23.60;;;-2.20;81.90;;;;;;4062898;29;20048;-74
2024/01/14 06:59:26;;;;;;;53.38;23.25;;;-2.10;81.90;;;;;;4067079;29;20056;-73
2024/01/14 07:01:28;;;;;;;57.58;22.33;;;-2.10;81.50;;;;;;4055474;29;20561;-76
2024/01/14 07:03:30;;;;;;;56.25;21.90;;;-2.10;81.40;;;;;;4055921;29;20128;-76
2024/01/14 07:05:33;;;;;;;54.53;22.90;;;-2.10;81.30;;;;;;4053586;29;20053;-75
2024/01/14 07:07:35;;;;;;;57.15;23.02;;;-2.10;81.30;;;;;;4053840;29;20447;-76
2024/01/14 07:09:36;;;;;;;57.15;22.98;;;-2.00;81.30;;;;;;4072637;29;20051;-76
2024/01/14 07:11:38;;;;;;;56.42;24.15;;;-2.00;81.20;;;;;;4076524;29;20482;-74
2024/01/14 07:13:43;;;;;;;53.72;22.45;;;-2.00;81.00;;;;;;4058217;29;20077;-74
2024/01/14 07:15:45;;;;;;;52.70;22.20;;;-2.00;80.90;;;;;;4059808;29;20044;-75
2024/01/14 07:17:47;;;;;;;57.45;23.00;;;-1.90;80.90;;;;;;4053144;29;20056;-76
2024/01/14 07:19:49;;;;;;;56.85;23.17;;;-1.90;80.90;;;;;;4052919;29;20108;-75
2024/01/14 07:21:52;;;;;;;57.13;21.02;;;-1.90;80.90;;;;;;4060551;29;20052;-77
2024/01/14 07:23:54;;;;;;;64.78;23.10;;;-1.90;80.80;;;;;;4069024;29;20056;-75
2024/01/14 07:25:56;;;;;;;61.33;23.00;;;-1.90;80.80;;;;;;4068949;29;20052;-74
2024/01/14 07:27:57;;;;;;;57.75;22.58;;;-1.80;80.50;;;;;;4068701;29;20044;-75
2024/01/14 07:29:59;;;;;;;56.33;22.73;;;-1.80;80.50;;;;;;4068712;29;20454;-75
2024/01/14 07:32:01;;;;;;;60.58;23.40;;;-1.90;80.70;;;;;;4068600;29;20075;-75
2024/01/14 07:34:03;;;;;;;59.15;23.45;;;-1.90;81.10;;;;;;4070307;29;20048;-77
2024/01/14 07:36:05;;;;;;;54.95;22.95;;;-1.90;81.10;;;;;;4083738;29;20075;-78
2024/01/14 07:38:08;;;;;;;65.55;24.00;;;-1.90;81.10;;;;;;4069406;29;20685;-77
2024/01/14 07:40:11;;;;;;;61.50;24.95;;;-1.80;81.00;;;;;;4068044;29;20044;-77
2024/01/14 07:42:13;;;;;;;58.22;22.35;;;-1.80;80.70;;;;;;4069088;29;20119;-77
2024/01/14 07:44:15;;;;;;;63.08;23.58;;;-1.80;80.80;;;;;;4067687;29;20080;-74
2024/01/14 07:46:17;;;;;;;62.92;23.92;;;-1.90;80.50;;;;;;4068027;29;20048;-75
2024/01/14 07:48:19;;;;;;;60.60;24.08;;;-2.00;81.00;;;;;;4067307;29;20052;-74
2024/01/14 07:50:21;;;;;;;59.88;23.83;;;-2.20;81.80;;;;;;4066788;29;20052;-75
2024/01/14 07:52:25;;;;;;;59.40;22.40;;;-2.10;82.10;;;;;;4060131;29;20095;-77
2024/01/14 07:54:28;;;;;;;55.65;22.08;;;-2.10;81.90;;;;;;4058601;29;20060;-76
2024/01/14 07:56:30;;;;;;;56.95;22.98;;;-2.00;81.70;;;;;;4062736;29;20060;-77
2024/01/14 07:58:31;;;;;;;59.20;23.20;;;-2.00;81.40;;;;;;4058690;29;20052;-75
2024/01/14 08:00:33;;;;;;;72.65;29.38;;;-1.90;81.20;;;;;;4059987;29;20044;-77
2024/01/14 08:02:33;;;;;;;60.47;23.65;;;-1.90;81.60;;;;;;4061976;29;20053;-75
2024/01/14 08:04:35;;;;;;;63.83;25.52;;;-1.90;81.70;;;;;;4056205;29;20138;-78
2024/01/14 08:06:37;;;;;;;68.68;26.20;;;-1.90;80.80;;;;;;4063330;29;20044;-76
2024/01/14 08:08:38;;;;;;;72.32;30.77;;;-1.90;81.10;;;;;;4057712;29;20045;-77
2024/01/14 08:10:42;;;;;;;58.53;22.40;;;-1.80;81.10;;;;;;4068967;29;20132;-76
2024/01/14 08:12:44;;;;;;;56.42;21.98;;;-1.90;80.50;;;;;;4062353;29;20076;-76
2024/01/14 08:14:46;;;;;;;53.20;21.40;;;-1.90;80.60;;;;;;4059488;29;20104;-75
2024/01/14 08:16:50;;;;;;;56.60;22.40;;;-2.00;80.20;;;;;;4062381;29;20523;-78
2024/01/14 08:18:52;;;;;;;60.83;23.38;;;-2.00;81.10;;;;;;4065966;29;20078;-76
2024/01/14 08:20:53;;;;;;;72.75;29.23;;;-2.00;81.00;;;;;;4070319;29;20052;-75
2024/01/14 08:22:55;;;;;;;64.88;25.88;;;-2.10;81.20;;;;;;4070653;29;20478;-75
2024/01/14 08:24:57;;;;;;;57.53;23.38;;;-2.10;81.20;;;;;;4070390;29;20052;-74
2024/01/14 08:27:00;;;;;;;58.53;22.40;;;-2.10;81.20;;;;;;4062412;29;20052;-75
2024/01/14 08:29:02;;;;;;;56.10;22.52;;;-2.40;81.90;;;;;;4059068;29;20131;-76
2024/01/14 08:31:05;;;;;;;56.35;21.95;;;-2.30;82.20;;;;;;4053795;29;20056;-76
2024/01/14 08:33:06;;;;;;;61.55;23.65;;;-2.20;82.10;;;;;;4052456;29;20553;-74
2024/01/14 08:35:10;;;;;;;56.25;21.83;;;-2.20;81.60;;;;;;4058354;29;20048;-77
2024/01/14 08:37:12;;;;;;;64.72;24.20;;;-2.20;81.40;;;;;;4062006;29;20052;-77
2024/01/14 08:39:14;;;;;;;59.13;22.85;;;-2.20;81.50;;;;;;4056205;29;20427;-76
2024/01/14 08:41:16;;;;;;;60.00;23.40;;;-2.10;81.60;;;;;;4055175;29;20048;-77
2024/01/14 08:43:19;;;;;;;55.95;21.15;;;-2.00;81.10;;;;;;4055633;29;20131;-77
2024/01/14 08:45:21;;;;;;;55.00;22.20;;;-1.90;81.00;;;;;;4060425;29;20045;-77
2024/01/14 08:47:22;;;;;;;54.60;22.00;;;-1.80;80.50;;;;;;4059944;29;20052;-75
2024/01/14 08:49:26;;;;;;;55.67;22.60;;;-1.80;80.10;;;;;;4058827;29;20127;-77
2024/01/14 08:51:28;;;;;;;59.95;22.65;;;-1.90;80.30;;;;;;4061317;29;20486;-76
2024/01/14 08:53:29;;;;;;;55.22;21.95;;;-1.80;80.30;;;;;;4068832;29;20052;-75
2024/01/14 08:55:31;;;;;;;58.65;21.77;;;-1.80;79.90;;;;;;4069921;29;20048;-78
2024/01/14 08:57:33;;;;;;;59.42;22.02;;;-1.80;80.10;;;;;;4069815;29;20091;-77
2024/01/14 08:59:37;;;;;;;58.03;23.25;;;-1.80;80.20;;;;;;4070109;29;20101;-78
2024/01/14 09:01:39;;;;;;;57.33;24.23;;;-1.80;80.30;;;;;;4069216;29;20091;-77
2024/01/14 09:03:41;;;;;;;58.92;22.63;;;-1.70;80.20;;;;;;4071160;29;20048;-78
2024/01/14 09:05:41;;;;;;;56.70;22.10;;;-1.70;80.70;;;;;;4085777;29;20107;-78
2024/01/14 09:07:43;;;;;;;58.00;22.30;;;-1.90;80.10;;;;;;4085385;29;20446;-77
2024/01/14 09:09:44;;;;;;;62.28;23.02;;;-2.00;81.20;;;;;;4085370;29;20051;-76
2024/01/14 09:11:46;;;;;;;55.42;22.25;;;-2.00;81.00;;;;;;4085251;29;20044;-78
2024/01/14 09:13:48;;;;;;;57.20;22.25;;;-2.00;81.40;;;;;;4083848;29;20052;-77
2024/01/14 09:15:52;;;;;;;59.63;22.23;;;-2.10;81.30;;;;;;4085378;29;20127;-76
2024/01/14 09:17:53;;;;;;;60.60;23.40;;;-2.10;81.50;;;;;;4081989;29;20044;-76
2024/01/14 09:19:55;;;;;;;56.13;22.98;;;-1.90;81.30;;;;;;4071805;29;20044;-78
2024/01/14 09:21:57;;;;;;;58.72;22.83;;;-2.00;80.20;;;;;;4085295;29;20051;-78
2024/01/14 09:23:59;;;;;;;57.58;22.05;;;-2.10;81.20;;;;;;4073409;29;20052;-78
2024/01/14 09:26:01;;;;;;;56.47;22.00;;;-2.00;81.00;;;;;;4065839;29;20044;-78
2024/01/14 09:28:04;;;;;;;57.13;21.98;;;-1.90;80.30;;;;;;4083690;29;20498;-76
2024/01/14 09:30:08;;;;;;;54.60;21.15;;;-2.00;80.40;;;;;;4061186;29;20083;-79
2024/01/14 09:32:11;;;;;;;56.65;22.13;;;-2.00;80.40;;;;;;4056301;29;20131;-78
2024/01/14 09:34:12;;;;;;;56.95;22.90;;;-2.00;80.10;;;;;;4065213;29;20080;-77
2024/01/14 09:36:14;;;;;;;57.05;23.17;;;-2.00;80.00;;;;;;4058490;29;20048;-77
2024/01/14 09:38:16;;;;;;;52.78;21.25;;;-1.90;80.00;;;;;;4053887;29;20067;-79
2024/01/14 09:40:18;;;;;;;53.28;22.08;;;-1.90;80.00;;;;;;4051861;29;20052;-77
2024/01/14 09:42:26;;;;;;;51.95;21.95;;;-1.80;80.00;;;;;;4084451;29;20099;-77
2024/01/14 09:44:28;;;;;;;55.17;21.27;;;-1.80;79.10;;;;;;4085094;29;20461;-79
2024/01/14 09:46:31;;;;;;;58.38;22.27;;;-1.80;78.80;;;;;;4071556;29;20111;-76
2024/01/14 09:48:35;;;;;;;55.15;21.95;;;-2.00;78.80;;;;;;4051999;29;20401;-77
2024/01/14 09:50:37;;;;;;;59.35;22.52;;;-2.00;79.00;;;;;;4050491;29;20052;-79
2024/01/14 09:52:41;;;;;;;53.80;20.85;;;-2.00;79.40;;;;;;4049865;29;20048;-76
2024/01/14 09:54:43;;;;;;;50.17;20.15;;;-2.10;78.90;;;;;;4054847;29;20068;-78
2024/01/14 09:56:46;;;;;;;51.55;21.42;;;-2.10;78.90;;;;;;4057280;29;20044;-77
2024/01/14 09:58:49;;;;;;;48.25;20.02;;;-2.20;79.10;;;;;;4056461;29;20127;-77
2024/01/14 10:00:52;;;;;;;52.92;20.85;;;-2.10;79.20;;;;;;4060467;29;20060;-78
2024/01/14 10:02:56;;;;;;;50.58;20.40;;;-2.10;78.80;;;;;;4083689;29;20429;-75
2024/01/14 10:04:59;;;;;;;53.10;19.85;;;-2.10;78.40;;;;;;4082798;29;20051;-76
2024/01/14 10:07:01;;;;;;;45.17;19.92;;;-2.00;78.50;;;;;;4070675;29;20082;-73
2024/01/14 10:09:04;;;;;;;49.75;19.48;;;-2.10;77.90;;;;;;4074421;29;20545;-75
2024/01/14 10:11:05;;;;;;;49.58;20.67;;;-2.20;78.00;;;;;;4069726;29;20138;-77
2024/01/14 10:13:09;;;;;;;58.03;22.73;;;-2.20;79.10;;;;;;4055109;29;20048;-77
2024/01/14 10:15:12;;;;;;;50.78;20.58;;;-2.10;80.90;;;;;;4060452;29;20056;-76
2024/01/14 10:17:14;;;;;;;51.95;20.38;;;-2.00;80.20;;;;;;4066353;29;20129;-77
2024/01/14 10:19:15;;;;;;;61.53;22.67;;;-1.90;79.40;;;;;;4056441;29;20108;-77
2024/01/14 10:21:18;;;;;;;52.67;21.15;;;-1.80;79.30;;;;;;4051396;29;20056;-77
2024/01/14 10:23:23;;;;;;;54.55;22.23;;;-1.80;78.50;;;;;;4050969;29;20112;-76
2024/01/14 10:25:26;;;;;;;54.95;22.13;;;-1.80;78.50;;;;;;4056990;29;20136;-76
2024/01/14 10:27:29;;;;;;;48.80;20.40;;;-1.90;79.10;;;;;;4061908;29;20052;-75
2024/01/14 10:29:31;;;;;;;52.95;21.17;;;-1.90;78.60;;;;;;4062557;29;20052;-76
2024/01/14 10:31:32;;;;;;;53.72;21.45;;;-1.80;79.00;;;;;;4064073;29;20056;-77
2024/01/14 10:33:35;;;;;;;67.03;25.80;;;-1.80;78.80;;;;;;4064709;29;20148;-79
2024/01/14 10:35:39;;;;;;;52.53;20.35;;;-1.70;78.90;;;;;;4058081;29;20115;-77
2024/01/14 10:37:42;;;;;;;54.03;22.05;;;-1.70;78.20;;;;;;4060738;29;20502;-76
2024/01/14 10:39:44;;;;;;;55.78;21.15;;;-1.60;78.10;;;;;;4065420;29;20052;-77
2024/01/14 10:41:47;;;;;;;48.10;20.60;;;-1.60;78.10;;;;;;4065262;29;20467;-76
2024/01/14 10:43:48;;;;;;;51.47;21.52;;;-1.60;78.10;;;;;;4061318;29;20062;-77
2024/01/14 10:45:51;;;;;;;51.58;21.05;;;-1.50;77.40;;;;;;4051178;29;20052;-76
2024/01/14 10:47:58;;;;;;;47.60;20.05;;;-1.60;77.30;;;;;;4053071;29;20419;-76
2024/01/14 10:50:01;;;;;;;49.35;20.90;;;-1.50;77.10;;;;;;4050650;29;20938;-76
2024/01/14 10:52:10;;;;;;;48.88;20.80;;;-1.50;77.10;;;;;;4060168;29;20056;-76
2024/01/14 10:54:27;;;;;;;49.58;20.50;;;-1.50;76.60;;;;;;4058067;29;20051;-79
2024/01/14 10:56:31;;;;;;;49.78;20.27;;;-1.50;76.70;;;;;;4062608;29;20049;-75
2024/01/14 10:58:37;;;;;;;49.47;20.80;;;-1.40;76.70;;;;;;4068456;29;20080;-78
2024/01/14 11:00:42;;;;;;;43.88;18.70;;;-1.20;76.50;;;;;;4075812;29;20162;-77
2024/01/14 11:02:45;;;;;;;44.28;18.42;;;-1.20;76.20;;;;;;4073802;29;20052;-76
2024/01/14 11:04:48;;;;;;;47.33;20.38;;;-1.10;76.00;;;;;;4066537;29;20056;-75
2024/01/14 11:06:55;;;;;;;49.25;21.63;;;-1.10;75.60;;;;;;4066433;29;20459;-78
2024/01/14 11:08:57;;;;;;;46.10;19.58;;;-1.10;75.50;;;;;;4074637;29;20131;-76
2024/01/14 11:11:01;;;;;;;45.30;19.70;;;-1.10;75.50;;;;;;4071907;29;20044;-75
2024/01/14 11:13:21;;;;;;;46.78;19.65;;;-1.10;75.30;;;;;;4065232;29;20056;-76
2024/01/14 11:15:27;;;;;;;45.65;20.23;;;-1.10;75.00;;;;;;4062573;29;20196;-75
2024/01/14 11:17:45;;;;;;;44.58;19.35;;;-1.00;75.30;;;;;;4069137;29;20465;-75
2024/01/14 11:19:49;;;;;;;44.38;19.00;;;-0.90;75.00;;;;;;4057763;29;20052;-77
2024/01/14 11:22:07;;;;;;;48.40;20.33;;;-0.80;74.70;;;;;;4062967;29;20160;-73
2024/01/14 11:24:09;;;;;;;46.97;19.40;;;-0.80;73.60;;;;;;4064787;29;20102;-77
2024/01/14 11:26:11;;;;;;;46.70;21.17;;;-0.90;74.10;;;;;;4068070;29;20052;-75
2024/01/14 11:28:13;;;;;;;48.67;20.02;;;-0.80;74.60;;;;;;4068525;29;20056;-77
2024/01/14 11:30:19;;;;;;;49.60;20.30;;;-0.70;74.80;;;;;;4068753;29;20466;-75
2024/01/14 11:32:23;;;;;;;;;;;-0.50;73.70;;;;;;4067006;29;20052;-75
2024/01/14 11:34:57;;;;;;;67.73;27.47;;;-0.40;73.10;;;;;;4070612;29;19927;-78
2024/01/14 11:36:59;;;;;;;48.67;19.45;;;-0.40;72.10;;;;;;4067282;29;20537;-77
2024/01/14 11:39:05;;;;;;;43.88;18.75;;;-0.40;71.80;;;;;;4067078;29;20060;-77
2024/01/14 11:41:31;;;;;;;47.70;19.08;;;-0.40;72.00;;;;;;4066559;29;20580;-77
2024/01/14 11:43:35;;;;;;;43.42;19.88;;;-0.30;71.70;;;;;;4067133;29;20116;-75
2024/01/14 11:45:41;;;;;;;42.85;18.90;;;-0.30;71.20;;;;;;4066985;29;20562;-78
2024/01/14 11:47:43;;;;;;;45.05;20.10;;;-0.20;71.60;;;;;;4068056;29;20052;-76
2024/01/14 11:49:52;;;;;;;46.13;20.27;;;-0.10;72.10;;;;;;4084214;29;20142;-77
2024/01/14 11:51:57;;;;;;;45.75;19.77;;;-0.10;72.30;;;;;;4071911;29;20059;-77
2024/01/14 11:54:00;;;;;;;44.42;20.13;;;-0.10;72.40;;;;;;4068649;29;20051;-74
2024/01/14 11:56:02;;;;;;;45.58;20.80;;;0.00;71.70;;;;;;4068544;29;20128;-74
2024/01/14 11:58:17;;;;;;;49.35;20.42;;;0.20;71.30;;;;;;4068599;29;20115;-76
2024/01/14 12:00:24;;;;;;;44.65;19.08;;;0.20;70.80;;;;;;4066937;29;20441;-75
2024/01/14 12:02:26;;;;;;;43.88;20.27;;;0.40;71.20;;;;;;4064267;29;20060;-77
2024/01/14 12:04:27;;;;;;;45.78;20.63;;;0.50;70.30;;;;;;4067053;29;20052;-76
2024/01/14 12:06:37;;;;;;;43.50;19.38;;;0.50;70.20;;;;;;4066809;29;20056;-77
2024/01/14 12:08:38;;;;;;;46.35;20.33;;;0.80;69.80;;;;;;4060233;29;20103;-74
2024/01/14 12:10:40;;;;;;;48.67;20.77;;;0.90;69.00;;;;;;4052354;29;20049;-75
2024/01/14 12:12:42;;;;;;;48.47;20.75;;;0.80;69.20;;;;;;4053712;29;20463;-75
2024/01/14 12:14:45;;;;;;;44.78;20.38;;;0.70;68.50;;;;;;4048414;29;20071;-75
2024/01/14 12:16:47;;;;;;;44.03;19.63;;;0.80;69.30;;;;;;4051068;29;20100;-75
2024/01/14 12:18:49;;;;;;;44.95;21.10;;;1.00;68.80;;;;;;4060866;29;20154;-73
2024/01/14 12:20:51;;;;;;;45.72;20.23;;;1.30;67.80;;;;;;4067411;29;20111;-75
2024/01/14 12:22:57;;;;;;;45.60;20.90;;;1.40;67.40;;;;;;4058685;29;20391;-74
2024/01/14 12:24:59;;;;;;;;;;;1.20;67.30;;;;;;4068672;29;20048;-73
2024/01/14 12:27:01;;;;;;;49.67;20.65;;;1.40;67.40;;;;;;4068352;29;19975;-74
2024/01/14 12:29:03;;;;;;;42.85;19.52;;;1.70;67.30;;;;;;4068408;29;20609;-74
2024/01/14 12:31:07;;;;;;;44.35;19.40;;;1.80;67.40;;;;;;4068499;29;20083;-75
2024/01/14 12:33:10;;;;;;;41.92;20.40;;;1.80;65.10;;;;;;4066808;29;20095;-76
2024/01/14 12:35:12;;;;;;;44.33;21.38;;;2.00;65.20;;;;;;4068570;29;20131;-75
2024/01/14 12:37:14;;;;;;;50.47;23.48;;;2.30;65.60;;;;;;4068637;29;20486;-76
2024/01/14 12:39:17;;;;;;;47.78;22.05;;;2.60;63.40;;;;;;4069488;29;20076;-75
2024/01/14 12:41:18;;;;;;;48.53;22.38;;;2.70;62.40;;;;;;4069932;29;20056;-75
2024/01/14 12:43:20;;;;;;;41.80;19.83;;;2.90;62.70;;;;;;4070256;29;20120;-74
2024/01/14 12:45:21;;;;;;;41.67;19.98;;;3.20;61.90;;;;;;4069249;29;20044;-76
2024/01/14 12:47:24;;;;;;;39.92;19.13;;;3.40;60.10;;;;;;4070427;29;20103;-75
2024/01/14 12:49:26;;;;;;;40.50;19.73;;;3.50;59.00;;;;;;4070149;29;20098;-76
2024/01/14 12:51:29;;;;;;;43.17;19.55;;;3.70;59.00;;;;;;4070272;29;20052;-75
2024/01/14 12:53:33;;;;;;;40.38;19.70;;;3.80;57.70;;;;;;4070330;29;20099;-76
2024/01/14 12:55:35;;;;;;;41.03;19.73;;;4.10;58.20;;;;;;4074292;29;20075;-75
2024/01/14 12:57:45;;;;;;;41.15;20.50;;;4.60;57.40;;;;;;4085933;29;20498;-75
2024/01/14 12:59:47;;;;;;;42.95;20.02;;;5.20;56.10;;;;;;4085892;29;20048;-74
2024/01/14 13:01:49;;;;;;;39.17;19.45;;;6.10;54.10;;;;;;4085485;29;20106;-75
2024/01/14 13:03:52;;;;;;;38.25;19.58;;;8.30;50.20;;;;;;4085833;29;20115;-75
2024/01/14 13:05:53;;;;;;;41.42;20.20;;;9.90;44.60;;;;;;4085556;29;20106;-77
2024/01/14 13:07:55;;;;;;;38.78;19.63;;;11.40;42.20;;;;;;4085879;29;20114;-74
2024/01/14 13:09:57;;;;;;;37.90;19.95;;;13.50;38.30;;;;;;4085766;29;20048;-74
2024/01/14 13:11:58;;;;;;;36.67;20.15;;;15.20;34.80;;;;;;4085649;29;20085;-75
2024/01/14 13:14:00;;;;;;;40.17;21.98;;;15.80;32.60;;;;;;4085447;29;20410;-75
2024/01/14 13:16:01;;;;;;;42.72;22.35;;;16.90;30.70;;;;;;4085678;29;20079;-76
2024/01/14 13:18:04;;;;;;;41.08;22.88;;;17.30;29.50;;;;;;4085690;29;20111;-77
2024/01/14 13:20:08;;;;;;;38.50;21.75;;;18.80;28.60;;;;;;4083596;29;20052;-75
2024/01/14 13:22:10;;;;;;;36.55;22.50;;;20.50;26.40;;;;;;4069981;29;20048;-76
2024/01/14 13:24:12;;;;;;;40.15;22.90;;;21.60;24.90;;;;;;4069924;29;20058;-76
2024/01/14 13:26:13;;;;;;;37.00;21.98;;;22.30;24.00;;;;;;4070096;29;20048;-76
2024/01/14 13:28:20;;;;;;;38.10;22.50;;;22.90;23.10;;;;;;4078192;29;20055;-76
2024/01/14 13:30:22;;;;;;;35.72;22.50;;;21.70;22.40;;;;;;4086861;29;20484;-75
2024/01/14 13:32:24;;;;;;;43.47;24.10;;;22.10;22.80;;;;;;4087118;29;20078;-77
2024/01/14 13:34:26;;;;;;;39.03;23.08;;;23.10;22.40;;;;;;4087519;29;20114;-77
2024/01/14 13:36:29;;;;;;;34.97;22.35;;;23.60;21.60;;;;;;4087096;29;20051;-77
2024/01/14 13:38:31;;;;;;;38.58;25.08;;;24.10;20.70;;;;;;4087421;29;20048;-77
2024/01/14 13:40:33;;;;;;;38.08;24.67;;;23.40;20.50;;;;;;4086127;29;20051;-77
2024/01/14 13:42:35;;;;;;;38.95;23.77;;;23.80;21.00;;;;;;4085004;29;20099;-77
2024/01/14 13:44:37;;;;;;;35.42;22.33;;;24.70;20.60;;;;;;4078667;29;20056;-78
2024/01/14 13:46:39;;;;;;;36.17;23.45;;;24.90;19.70;;;;;;4070396;29;20048;-75
2024/01/14 13:48:41;;;;;;;36.03;23.30;;;23.10;20.10;;;;;;4068566;29;20107;-75
2024/01/14 13:50:43;;;;;;;37.72;25.50;;;22.00;21.10;;;;;;4067615;29;20048;-78
2024/01/14 13:52:46;;;;;;;35.25;23.63;;;23.00;21.10;;;;;;4062131;29;20061;-77
2024/01/14 13:54:48;;;;;;;36.45;23.80;;;23.90;20.30;;;;;;4054594;29;20048;-76
2024/01/14 13:56:54;;;;;;;36.22;24.08;;;25.00;19.50;;;;;;4050545;29;20062;-78
2024/01/14 13:58:56;;;;;;;36.90;24.52;;;24.60;19.80;;;;;;4052262;29;20158;-77
2024/01/14 14:00:57;;;;;;;35.53;22.98;;;25.10;18.80;;;;;;4066365;29;20494;-77
2024/01/14 14:02:59;;;;;;;32.38;22.73;;;25.40;18.60;;;;;;4067083;29;20053;-78
2024/01/14 14:05:01;;;;;;;32.88;22.65;;;26.60;18.70;;;;;;4058507;29;20044;-77
2024/01/14 14:07:02;;;;;;;32.88;22.60;;;25.80;18.50;;;;;;4050837;29;20885;-79
2024/01/14 14:09:07;;;;;;;34.03;22.27;;;25.10;19.20;;;;;;4064819;29;20143;-78
2024/01/14 14:11:08;;;;;;;33.42;23.55;;;25.90;18.20;;;;;;4076144;29;20498;-77
2024/01/14 14:13:09;;;;;;;32.35;22.35;;;26.50;17.60;;;;;;4081603;29;20058;-75
2024/01/14 14:15:10;;;;;;;36.22;24.05;;;26.90;17.50;;;;;;4066851;29;20052;-77
2024/01/14 14:17:12;;;;;;;32.45;22.13;;;27.30;17.20;;;;;;4067133;29;20056;-77
2024/01/14 14:19:14;;;;;;;31.35;21.80;;;27.60;17.20;;;;;;4076153;29;20448;-78
2024/01/14 14:21:16;;;;;;;33.92;23.38;;;26.70;17.40;;;;;;4066809;29;20083;-77
2024/01/14 14:23:18;;;;;;;35.80;23.88;;;26.20;17.60;;;;;;4053303;29;20060;-76
2024/01/14 14:25:21;;;;;;;37.55;22.30;;;26.50;17.60;;;;;;4050735;29;20059;-77
2024/01/14 14:27:22;;;;;;;33.03;22.15;;;27.00;17.20;;;;;;4066209;29;20052;-77
2024/01/14 14:29:24;;;;;;;33.80;22.20;;;27.70;16.80;;;;;;4082551;29;20056;-77
2024/01/14 14:31:25;;;;;;;31.95;22.42;;;27.20;16.90;;;;;;4081901;29;20056;-77
2024/01/14 14:33:27;;;;;;;37.00;23.33;;;25.30;17.20;;;;;;4080487;29;20060;-77
2024/01/14 14:35:30;;;;;;;33.95;22.48;;;23.40;19.30;;;;;;4074063;29;20047;-77
2024/01/14 14:37:32;;;;;;;34.33;23.15;;;21.90;20.20;;;;;;4071783;29;20115;-78
2024/01/14 14:39:32;;;;;;;33.03;22.45;;;22.40;21.10;;;;;;4066159;29;20064;-77
2024/01/14 14:41:36;;;;;;;35.67;23.52;;;22.70;20.80;;;;;;4066164;29;20111;-76
2024/01/14 14:43:37;;;;;;;35.22;22.52;;;23.00;20.10;;;;;;4066915;29;20379;-76
2024/01/14 14:45:39;;;;;;;32.80;22.55;;;22.70;20.20;;;;;;4066159;29;20111;-77
2024/01/14 14:47:41;;;;;;;34.42;22.58;;;22.10;20.50;;;;;;4076489;29;20474;-75
2024/01/14 14:49:43;;;;;;;34.05;23.25;;;21.60;20.70;;;;;;4066533;29;20052;-77
2024/01/14 14:51:45;;;;;;;33.20;23.02;;;21.00;21.40;;;;;;4066726;29;20052;-76
2024/01/14 14:53:47;;;;;;;35.08;22.17;;;19.70;22.10;;;;;;4066794;29;20104;-77
2024/01/14 14:55:49;;;;;;;33.65;22.05;;;18.00;23.40;;;;;;4066499;29;20052;-76
2024/01/14 14:57:52;;;;;;;34.83;22.85;;;16.30;25.40;;;;;;4077742;29;20102;-76
2024/01/14 14:59:54;;;;;;;35.90;24.55;;;16.10;26.40;;;;;;4079945;29;20048;-75
2024/01/14 15:01:56;;;;;;;33.78;23.45;;;17.00;25.90;;;;;;4069107;29;20092;-77
2024/01/14 15:03:58;;;;;;;35.47;24.05;;;18.60;24.60;;;;;;4074673;29;20100;-76
2024/01/14 15:06:00;;;;;;;35.38;26.63;;;19.70;22.90;;;;;;4081835;29;20119;-76
2024/01/14 15:08:02;;;;;;;34.38;25.17;;;20.20;22.20;;;;;;4083023;29;20051;-75
2024/01/14 15:10:04;;;;;;;32.22;21.17;;;19.50;22.00;;;;;;4085326;29;20056;-77
2024/01/14 15:12:07;;;;;;;30.55;20.95;;;18.60;23.20;;;;;;4085388;29;20111;-76
2024/01/14 15:14:10;;;;;;;31.73;20.92;;;18.50;23.50;;;;;;4084800;29;20457;-76
2024/01/14 15:16:15;;;;;;;31.05;20.50;;;18.80;23.40;;;;;;4077318;29;20052;-75
2024/01/14 15:18:17;;;;;;;29.67;20.02;;;18.90;23.60;;;;;;4069465;29;20541;-77
2024/01/14 15:20:19;;;;;;;30.25;19.58;;;18.60;23.50;;;;;;4069382;29;20465;-77
2024/01/14 15:22:20;;;;;;;30.67;20.13;;;17.80;23.70;;;;;;4069492;29;20442;-76
2024/01/14 15:24:22;;;;;;;30.73;20.48;;;17.10;24.10;;;;;;4076307;29;20048;-77
2024/01/14 15:26:24;;;;;;;31.73;19.65;;;16.40;25.10;;;;;;4077335;29;20481;-76
2024/01/14 15:28:25;;;;;;;32.63;19.45;;;15.90;25.60;;;;;;4085111;29;20107;-77
2024/01/14 15:30:29;;;;;;;32.08;19.23;;;15.80;25.90;;;;;;4084972;29;20075;-74
2024/01/14 15:32:30;;;;;;;33.03;18.73;;;15.50;26.30;;;;;;4085042;29;20081;-75
2024/01/14 15:34:32;;;;;;;35.40;21.42;;;14.60;27.30;;;;;;4084955;29;20079;-76
2024/01/14 15:36:34;;;;;;;32.17;19.50;;;13.20;28.90;;;;;;4071828;29;20044;-78
2024/01/14 15:38:36;;;;;;;33.55;19.98;;;11.90;30.50;;;;;;4069359;29;20466;-77
2024/01/14 15:40:38;;;;;;;31.60;18.52;;;10.90;32.60;;;;;;4082393;29;20106;-77
2024/01/14 15:42:39;;;;;;;33.70;19.80;;;10.10;34.40;;;;;;4084906;29;20490;-76
2024/01/14 15:44:41;;;;;;;32.03;19.58;;;9.40;35.90;;;;;;4084817;29;20079;-77
2024/01/14 15:46:44;;;;;;;32.75;18.23;;;8.80;37.20;;;;;;4073518;29;20052;-75
2024/01/14 15:48:46;;;;;;;34.85;19.23;;;8.30;38.40;;;;;;4068726;29;20052;-75
2024/01/14 15:50:48;;;;;;;33.30;18.80;;;8.00;39.20;;;;;;4082493;29;20055;-76
2024/01/14 15:52:50;;;;;;;34.53;18.88;;;7.70;40.00;;;;;;4084764;29;20489;-75
2024/01/14 15:54:51;;;;;;;33.83;18.73;;;7.30;40.90;;;;;;4084060;29;20051;-76
2024/01/14 15:56:53;;;;;;;37.85;19.70;;;7.00;41.80;;;;;;4084928;29;20565;-78
2024/01/14 15:58:55;;;;;;;36.13;19.70;;;6.60;42.50;;;;;;4082918;29;20056;-75
2024/01/14 16:00:57;;;;;;;39.03;21.05;;;6.40;43.30;;;;;;4076625;29;20556;-75
2024/01/14 16:03:00;;;;;;;39.53;20.02;;;6.20;44.00;;;;;;4074258;29;20130;-75
2024/01/14 16:05:02;;;;;;;54.72;29.95;;;5.80;44.90;;;;;;4084969;29;20501;-76
2024/01/14 16:07:04;;;;;;;51.88;26.40;;;5.60;45.80;;;;;;4079626;29;20043;-76
2024/01/14 16:09:06;;;;;;;46.05;24.67;;;5.40;46.40;;;;;;4071707;29;20107;-77
2024/01/14 16:11:08;;;;;;;42.40;22.02;;;5.20;46.80;;;;;;4069393;29;20092;-75
2024/01/14 16:13:10;;;;;;;47.53;25.10;;;5.00;47.80;;;;;;4068546;29;20143;-76
2024/01/14 16:15:14;;;;;;;153.52;83.55;;;4.80;48.50;;;;;;4071342;29;20104;-77
2024/01/14 16:17:16;;;;;;;134.38;69.70;;;4.50;49.70;;;;;;4068602;29;20113;-77
2024/01/14 16:19:20;;;;;;;65.93;33.47;;;4.20;50.60;;;;;;4068386;29;20048;-77
2024/01/14 16:21:24;;;;;;;58.03;30.33;;;3.90;51.00;;;;;;4068631;29;20107;-77
2024/01/14 16:23:25;;;;;;;52.08;26.60;;;3.80;51.30;;;;;;4068577;29;20486;-76